Terminal Aerodrome Forecast
Issued by NWS

Home | Current Version | Previous Version | Graphics & Text | Print | Product List | Glossary On
Versions: 1 2 3 4 5 6 7 8 9 10 11 12 13 14 15 16 17
000
FTUS43 KABR 190900 AAA
TAFPIR
TAF AMD
KPIR 190913Z 1909/2006 14010KT P6SM BKN150
     FM191100 16009KT 5SM BR OVC015
     FM191500 26008KT P6SM OVC100
     FM191800 31007KT P6SM BKN250=

USA.gov is the U.S. government's official web portal to all federal, state and local government web resources and services.